CheckWX is a tool to help pilots better visualize weather data.  It is not intended as a substitute for an official pre-flight weather briefing.

12:03:27 UTC

FYWW METAR
Windhoek, Town MET Airport
Windhoek, Namibia
Current

1 hour ago

FYWW 251100Z AUTO 27003KT //// // ////// 30/06 Q1022
Observed
Mar-25 @ 11:00 UTC
Wind
  • 270° at 3 KTS
Visibility
Temperature
30°C / 86°F
Dewpoint
C / 43°F
Humidity
22%
Altimeter
30.18" Hg
Pressure
1021.92 hPa
Previous

2 hours ago

FYWW 251000Z AUTO 14003KT //// // ////// 29/06 Q1023
Observed
Mar-25 @ 10:00 UTC
Wind
  • 140° at 3 KTS
Visibility
Temperature
29°C / 84°F
Dewpoint
C / 43°F
Humidity
23%
Altimeter
30.21" Hg
Pressure
1022.92 hPa
Previous

3 hours ago

FYWW 250900Z AUTO 09004KT //// // ////// 30/07 Q1024
Observed
Mar-25 @ 09:00 UTC
Wind
  • 090° at 4 KTS
Visibility
Temperature
30°C / 86°F
Dewpoint
C / 45°F
Humidity
24%
Altimeter
30.24" Hg
Pressure
1023.92 hPa